EWG6489 EDDF-LEPA
Flight info
| Callsign | EWG6489 |
|---|---|
| Flight time | 1h 50m |
| Altitude | 37000 |
| Route | ANEKI2L/18 ANEKI Y163 HERBI Y164 MOPAN DCT LUTIX DCT BENOT DCT NEMOS DCT GEVEA DCT INCUS DCT BALSI DCT RETNO DCT TUPOX DCT MTG DCT DIVKO DCT VATIR DCT PIVUS N852 VERSO L129 LUNIK |
| Aircraft | A320/M-SDE3FGHIRWY/LB1 |
Departure
| Time | 2026-05-07 11:25 |
|---|---|
| Airport | Frankfurt Main Airport (EDDF) |
Arrival
| Time | 2026-05-07 13:16 |
|---|---|
| Airport | Palma de Mallorca Airport (LEPA) |
| Time | Latitude | Longitude | Altitude | Speed | Heading |
|---|---|---|---|---|---|
| 2026-05-07 10:47 | 50.04686 | 8.56705 | 365 ft | 0 kts | 116° |
| 2026-05-07 10:53 | 50.04686 | 8.56706 | 362 ft | 0 kts | 116° |
| 2026-05-07 10:54 | 50.04402 | 8.56223 | 363 ft | 0 kts | 159° |
| 2026-05-07 10:55 | 50.04403 | 8.56223 | 362 ft | 0 kts | 159° |
| 2026-05-07 11:13 | 50.04417 | 8.56214 | 364 ft | 4 kts | 159° |
| 2026-05-07 11:13 | 50.04442 | 8.56200 | 365 ft | 3 kts | 159° |
| 2026-05-07 11:13 | 50.04461 | 8.56191 | 363 ft | 4 kts | 201° |
| 2026-05-07 11:13 | 50.04474 | 8.56212 | 365 ft | 1 kts | 250° |
| 2026-05-07 11:14 | 50.04467 | 8.56179 | 364 ft | 4 kts | 250° |
| 2026-05-07 11:14 | 50.04457 | 8.56140 | 362 ft | 4 kts | 250° |
| 2026-05-07 11:14 | 50.04451 | 8.56112 | 367 ft | 0 kts | 249° |
| 2026-05-07 11:16 | 50.04451 | 8.56111 | 367 ft | 1 kts | 249° |
| 2026-05-07 11:17 | 50.04444 | 8.56082 | 361 ft | 0 kts | 249° |
| 2026-05-07 11:17 | 50.04431 | 8.56051 | 362 ft | 7 kts | 226° |
| 2026-05-07 11:17 | 50.04363 | 8.56054 | 362 ft | 14 kts | 142° |
| 2026-05-07 11:18 | 50.04268 | 8.56044 | 363 ft | 18 kts | 231° |
| 2026-05-07 11:18 | 50.04214 | 8.55836 | 362 ft | 24 kts | 249° |
| 2026-05-07 11:18 | 50.04148 | 8.55567 | 365 ft | 29 kts | 250° |
| 2026-05-07 11:18 | 50.04073 | 8.55243 | 362 ft | 34 kts | 250° |
| 2026-05-07 11:19 | 50.03985 | 8.54880 | 363 ft | 38 kts | 249° |
| 2026-05-07 11:19 | 50.03915 | 8.54586 | 364 ft | 27 kts | 249° |
| 2026-05-07 11:19 | 50.03827 | 8.54301 | 361 ft | 32 kts | 236° |
| 2026-05-07 11:19 | 50.03793 | 8.54185 | 366 ft | 8 kts | 250° |
| 2026-05-07 11:20 | 50.03765 | 8.54070 | 365 ft | 15 kts | 248° |
| 2026-05-07 11:20 | 50.03718 | 8.53882 | 366 ft | 22 kts | 249° |
| 2026-05-07 11:20 | 50.03660 | 8.53630 | 363 ft | 28 kts | 247° |
| 2026-05-07 11:20 | 50.03583 | 8.53327 | 362 ft | 32 kts | 250° |
| 2026-05-07 11:21 | 50.03512 | 8.53026 | 363 ft | 29 kts | 250° |
| 2026-05-07 11:21 | 50.03463 | 8.52833 | 361 ft | 8 kts | 244° |
| 2026-05-07 11:21 | 50.03435 | 8.52731 | 363 ft | 7 kts | 249° |
| 2026-05-07 11:21 | 50.03432 | 8.52721 | 365 ft | 0 kts | 249° |
| 2026-05-07 11:22 | 50.03431 | 8.52714 | 365 ft | 3 kts | 249° |
| 2026-05-07 11:22 | 50.03413 | 8.52652 | 366 ft | 10 kts | 240° |
| 2026-05-07 11:22 | 50.03346 | 8.52595 | 363 ft | 0 kts | 183° |
| 2026-05-07 11:24 | 50.03267 | 8.52593 | 362 ft | 39 kts | 177° |
| 2026-05-07 11:24 | 50.02737 | 8.52597 | 362 ft | 109 kts | 180° |
| 2026-05-07 11:24 | 50.01794 | 8.52602 | 364 ft | 160 kts | 180° |
| 2026-05-07 11:25 | 50.00607 | 8.52622 | 728 ft | 177 kts | 179° |
| 2026-05-07 11:25 | 49.99350 | 8.52698 | 1387 ft | 182 kts | 179° |
| 2026-05-07 11:25 | 49.98049 | 8.52779 | 1992 ft | 196 kts | 179° |
| 2026-05-07 11:25 | 49.96608 | 8.52868 | 2400 ft | 221 kts | 179° |
| 2026-05-07 11:26 | 49.95020 | 8.52971 | 2949 ft | 232 kts | 179° |
| 2026-05-07 11:26 | 49.93389 | 8.53083 | 3492 ft | 236 kts | 179° |
| 2026-05-07 11:26 | 49.91687 | 8.53199 | 4043 ft | 253 kts | 179° |
| 2026-05-07 11:26 | 49.89906 | 8.53321 | 4607 ft | 258 kts | 179° |
| 2026-05-07 11:27 | 49.88091 | 8.53450 | 5197 ft | 263 kts | 179° |
| 2026-05-07 11:27 | 49.86207 | 8.53587 | 5797 ft | 280 kts | 179° |
| 2026-05-07 11:27 | 49.84255 | 8.53724 | 6394 ft | 295 kts | 179° |
| 2026-05-07 11:27 | 49.82153 | 8.53868 | 6970 ft | 311 kts | 179° |
| 2026-05-07 11:28 | 49.79903 | 8.54022 | 7556 ft | 326 kts | 179° |
| 2026-05-07 11:28 | 49.77836 | 8.54108 | 8102 ft | 336 kts | 182° |
| 2026-05-07 11:28 | 49.75461 | 8.53954 | 8701 ft | 348 kts | 185° |
| 2026-05-07 11:28 | 49.73011 | 8.53650 | 9357 ft | 357 kts | 187° |
| 2026-05-07 11:29 | 49.70523 | 8.53274 | 10077 ft | 363 kts | 188° |
| 2026-05-07 11:29 | 49.67990 | 8.52874 | 10731 ft | 369 kts | 187° |
| 2026-05-07 11:29 | 49.65417 | 8.52477 | 11407 ft | 374 kts | 187° |
| 2026-05-07 11:29 | 49.62780 | 8.52092 | 12105 ft | 379 kts | 187° |
| 2026-05-07 11:30 | 49.60164 | 8.51732 | 12816 ft | 383 kts | 186° |
| 2026-05-07 11:30 | 49.57500 | 8.51379 | 13528 ft | 386 kts | 186° |
| 2026-05-07 11:30 | 49.54784 | 8.51030 | 14221 ft | 389 kts | 186° |
| 2026-05-07 11:30 | 49.52080 | 8.50686 | 14883 ft | 391 kts | 186° |
| 2026-05-07 11:31 | 49.49399 | 8.50345 | 15549 ft | 392 kts | 186° |
| 2026-05-07 11:31 | 49.46669 | 8.49995 | 16226 ft | 393 kts | 186° |
| 2026-05-07 11:31 | 49.43949 | 8.49644 | 16938 ft | 393 kts | 186° |
| 2026-05-07 11:31 | 49.41233 | 8.49289 | 17657 ft | 393 kts | 186° |
| 2026-05-07 11:32 | 49.35787 | 8.48582 | 19030 ft | 392 kts | 187° |
| 2026-05-07 11:32 | 49.33073 | 8.48227 | 19687 ft | 390 kts | 187° |
| 2026-05-07 11:32 | 49.30373 | 8.47871 | 20358 ft | 389 kts | 187° |
| 2026-05-07 11:33 | 49.27690 | 8.47520 | 21036 ft | 387 kts | 187° |
| 2026-05-07 11:33 | 49.25013 | 8.47174 | 21746 ft | 384 kts | 187° |
| 2026-05-07 11:33 | 49.22351 | 8.46828 | 22469 ft | 382 kts | 187° |
| 2026-05-07 11:33 | 49.19718 | 8.46486 | 23194 ft | 378 kts | 187° |
| 2026-05-07 11:34 | 49.17108 | 8.46149 | 23891 ft | 375 kts | 187° |
| 2026-05-07 11:34 | 49.14519 | 8.45814 | 24538 ft | 371 kts | 187° |
| 2026-05-07 11:34 | 49.11972 | 8.45486 | 25193 ft | 367 kts | 187° |
| 2026-05-07 11:34 | 49.09446 | 8.45160 | 25854 ft | 362 kts | 187° |
| 2026-05-07 11:35 | 49.06955 | 8.44821 | 26550 ft | 356 kts | 189° |
| 2026-05-07 11:35 | 49.04555 | 8.44142 | 27262 ft | 348 kts | 195° |
| 2026-05-07 11:35 | 49.02215 | 8.43323 | 27994 ft | 341 kts | 195° |
| 2026-05-07 11:35 | 48.99921 | 8.42522 | 28733 ft | 333 kts | 194° |
| 2026-05-07 11:36 | 48.97689 | 8.41744 | 29433 ft | 328 kts | 195° |
| 2026-05-07 11:36 | 48.95465 | 8.40966 | 29841 ft | 329 kts | 195° |
| 2026-05-07 11:36 | 48.93222 | 8.40180 | 30217 ft | 331 kts | 194° |
| 2026-05-07 11:36 | 48.90975 | 8.39392 | 30541 ft | 334 kts | 195° |
| 2026-05-07 11:37 | 48.88696 | 8.38598 | 30869 ft | 336 kts | 194° |
| 2026-05-07 11:37 | 48.86420 | 8.37808 | 31162 ft | 338 kts | 195° |
| 2026-05-07 11:37 | 48.84126 | 8.37012 | 31470 ft | 340 kts | 195° |
| 2026-05-07 11:37 | 48.81808 | 8.36209 | 31795 ft | 342 kts | 195° |
| 2026-05-07 11:38 | 48.79480 | 8.35405 | 32115 ft | 345 kts | 195° |
| 2026-05-07 11:38 | 48.77134 | 8.34588 | 32421 ft | 347 kts | 195° |
| 2026-05-07 11:38 | 48.74780 | 8.33740 | 32728 ft | 349 kts | 195° |
| 2026-05-07 11:38 | 48.72413 | 8.32873 | 33026 ft | 351 kts | 196° |
| 2026-05-07 11:39 | 48.70042 | 8.31999 | 33320 ft | 352 kts | 196° |
| 2026-05-07 11:39 | 48.67655 | 8.31118 | 33603 ft | 354 kts | 196° |
| 2026-05-07 11:39 | 48.65255 | 8.30236 | 33894 ft | 357 kts | 196° |
| 2026-05-07 11:39 | 48.62833 | 8.29350 | 34153 ft | 358 kts | 196° |
| 2026-05-07 11:40 | 48.60409 | 8.28466 | 34381 ft | 360 kts | 196° |
| 2026-05-07 11:40 | 48.57972 | 8.27580 | 34619 ft | 362 kts | 196° |
| 2026-05-07 11:40 | 48.55511 | 8.26689 | 34853 ft | 363 kts | 196° |
| 2026-05-07 11:40 | 48.53044 | 8.25798 | 35084 ft | 364 kts | 196° |
| 2026-05-07 11:41 | 48.50574 | 8.24906 | 35305 ft | 366 kts | 196° |
| 2026-05-07 11:41 | 48.48096 | 8.24012 | 35529 ft | 367 kts | 196° |
| 2026-05-07 11:41 | 48.45646 | 8.23119 | 35741 ft | 369 kts | 196° |
| 2026-05-07 11:41 | 48.43151 | 8.22207 | 35978 ft | 370 kts | 196° |
| 2026-05-07 11:42 | 48.40643 | 8.21287 | 36208 ft | 372 kts | 196° |
| 2026-05-07 11:42 | 48.38110 | 8.20358 | 36401 ft | 373 kts | 196° |
| 2026-05-07 11:42 | 48.35592 | 8.19436 | 36601 ft | 374 kts | 196° |
| 2026-05-07 11:42 | 48.33048 | 8.18507 | 36793 ft | 375 kts | 196° |
| 2026-05-07 11:43 | 48.30503 | 8.17581 | 36995 ft | 377 kts | 196° |
| 2026-05-07 11:43 | 48.26177 | 8.16004 | 37055 ft | 386 kts | 198° |
| 2026-05-07 11:44 | 48.21410 | 8.13072 | 37057 ft | 395 kts | 208° |
| 2026-05-07 11:44 | 48.16452 | 8.09374 | 37055 ft | 407 kts | 208° |
| 2026-05-07 11:45 | 48.11284 | 8.05565 | 37056 ft | 419 kts | 208° |
| 2026-05-07 11:45 | 48.05996 | 8.01673 | 37056 ft | 430 kts | 208° |
| 2026-05-07 11:46 | 48.00545 | 7.97663 | 37055 ft | 441 kts | 208° |
| 2026-05-07 11:46 | 47.94985 | 7.93588 | 37037 ft | 450 kts | 208° |
| 2026-05-07 11:47 | 47.89314 | 7.89438 | 37053 ft | 458 kts | 208° |
| 2026-05-07 11:47 | 47.83577 | 7.85252 | 37048 ft | 459 kts | 208° |
| 2026-05-07 11:48 | 47.77837 | 7.81083 | 37044 ft | 459 kts | 208° |
| 2026-05-07 11:48 | 47.72090 | 7.76911 | 37056 ft | 459 kts | 208° |
| 2026-05-07 11:49 | 47.66351 | 7.72743 | 37053 ft | 459 kts | 208° |
| 2026-05-07 11:49 | 47.60611 | 7.68591 | 37070 ft | 460 kts | 208° |
| 2026-05-07 11:50 | 47.54846 | 7.64439 | 37071 ft | 460 kts | 208° |
| 2026-05-07 11:50 | 47.49095 | 7.60309 | 37068 ft | 460 kts | 208° |
| 2026-05-07 11:51 | 47.43337 | 7.56172 | 37065 ft | 459 kts | 208° |
| 2026-05-07 11:51 | 47.37593 | 7.52062 | 37060 ft | 459 kts | 208° |
| 2026-05-07 11:52 | 47.31840 | 7.47952 | 37032 ft | 459 kts | 208° |
| 2026-05-07 11:52 | 47.26100 | 7.43864 | 37039 ft | 458 kts | 208° |
| 2026-05-07 11:53 | 47.20359 | 7.39792 | 37040 ft | 458 kts | 208° |
| 2026-05-07 11:53 | 47.15199 | 7.34455 | 37038 ft | 452 kts | 228° |
| 2026-05-07 11:54 | 47.11241 | 7.27336 | 37031 ft | 450 kts | 233° |
| 2026-05-07 11:54 | 47.07344 | 7.20149 | 37033 ft | 450 kts | 233° |
| 2026-05-07 11:55 | 47.03431 | 7.12990 | 37038 ft | 450 kts | 233° |
| 2026-05-07 11:55 | 46.99505 | 7.05809 | 37038 ft | 451 kts | 232° |
| 2026-05-07 11:56 | 46.95585 | 6.98662 | 37025 ft | 451 kts | 233° |
| 2026-05-07 11:56 | 46.91657 | 6.91579 | 37040 ft | 451 kts | 229° |
| 2026-05-07 11:57 | 46.86919 | 6.85545 | 37047 ft | 452 kts | 221° |
| 2026-05-07 11:57 | 46.82012 | 6.79706 | 37047 ft | 452 kts | 221° |
| 2026-05-07 11:58 | 46.77140 | 6.73908 | 37034 ft | 452 kts | 221° |
| 2026-05-07 11:58 | 46.72259 | 6.68111 | 37034 ft | 451 kts | 221° |
| 2026-05-07 11:59 | 46.67291 | 6.62244 | 37040 ft | 451 kts | 221° |
| 2026-05-07 11:59 | 46.62354 | 6.56411 | 37039 ft | 451 kts | 221° |
| 2026-05-07 12:00 | 46.57496 | 6.50687 | 37036 ft | 450 kts | 221° |
| 2026-05-07 12:00 | 46.52613 | 6.44958 | 37041 ft | 450 kts | 221° |
| 2026-05-07 12:01 | 46.47744 | 6.39253 | 37038 ft | 450 kts | 221° |
| 2026-05-07 12:01 | 46.42872 | 6.33552 | 37032 ft | 450 kts | 221° |
| 2026-05-07 12:02 | 46.38025 | 6.27899 | 37025 ft | 450 kts | 221° |
| 2026-05-07 12:02 | 46.33112 | 6.22190 | 37039 ft | 450 kts | 221° |
| 2026-05-07 12:03 | 46.28249 | 6.16591 | 37041 ft | 450 kts | 218° |
| 2026-05-07 12:03 | 46.22528 | 6.12691 | 37042 ft | 459 kts | 197° |
| 2026-05-07 12:04 | 46.16190 | 6.11163 | 37032 ft | 462 kts | 192° |
| 2026-05-07 12:04 | 46.09850 | 6.09755 | 37035 ft | 462 kts | 192° |
| 2026-05-07 12:05 | 46.03491 | 6.08348 | 37042 ft | 462 kts | 192° |
| 2026-05-07 12:05 | 45.97137 | 6.06948 | 37027 ft | 462 kts | 192° |
| 2026-05-07 12:06 | 45.90780 | 6.05557 | 37042 ft | 461 kts | 193° |
| 2026-05-07 12:06 | 45.84496 | 6.04172 | 37044 ft | 461 kts | 193° |
| 2026-05-07 12:07 | 45.78172 | 6.02771 | 37033 ft | 460 kts | 193° |
| 2026-05-07 12:07 | 45.71850 | 6.01365 | 37038 ft | 460 kts | 193° |
| 2026-05-07 12:08 | 45.65560 | 5.99977 | 37020 ft | 459 kts | 193° |
| 2026-05-07 12:08 | 45.59259 | 5.98585 | 37009 ft | 459 kts | 193° |
| 2026-05-07 12:09 | 45.52951 | 5.97209 | 37021 ft | 458 kts | 193° |
| 2026-05-07 12:09 | 45.46836 | 5.95855 | 37022 ft | 457 kts | 194° |
| 2026-05-07 12:10 | 45.40675 | 5.94081 | 37004 ft | 455 kts | 197° |
| 2026-05-07 12:10 | 45.34533 | 5.92019 | 37021 ft | 453 kts | 198° |
| 2026-05-07 12:11 | 45.28404 | 5.90008 | 37022 ft | 453 kts | 197° |
| 2026-05-07 12:11 | 45.22232 | 5.88087 | 37012 ft | 453 kts | 197° |
| 2026-05-07 12:12 | 45.16067 | 5.86207 | 37014 ft | 453 kts | 197° |
| 2026-05-07 12:12 | 45.09921 | 5.84315 | 37006 ft | 452 kts | 197° |
| 2026-05-07 12:13 | 45.03778 | 5.82411 | 36979 ft | 451 kts | 197° |
| 2026-05-07 12:13 | 44.97652 | 5.80526 | 36986 ft | 451 kts | 197° |
| 2026-05-07 12:14 | 44.91838 | 5.78743 | 36992 ft | 450 kts | 197° |
| 2026-05-07 12:14 | 44.85722 | 5.76867 | 36993 ft | 450 kts | 197° |
| 2026-05-07 12:15 | 44.79609 | 5.74987 | 36980 ft | 449 kts | 197° |
| 2026-05-07 12:15 | 44.73599 | 5.73154 | 36986 ft | 449 kts | 197° |
| 2026-05-07 12:16 | 44.67512 | 5.71297 | 36988 ft | 449 kts | 197° |
| 2026-05-07 12:16 | 44.61399 | 5.69437 | 36993 ft | 448 kts | 196° |
| 2026-05-07 12:17 | 44.56334 | 5.67897 | 36990 ft | 448 kts | 197° |
| 2026-05-07 12:17 | 44.49294 | 5.65765 | 36984 ft | 448 kts | 197° |
| 2026-05-07 12:18 | 44.43195 | 5.63923 | 36973 ft | 448 kts | 196° |
| 2026-05-07 12:18 | 44.38117 | 5.62320 | 36983 ft | 445 kts | 201° |
| 2026-05-07 12:19 | 44.32366 | 5.59265 | 36987 ft | 442 kts | 205° |
| 2026-05-07 12:19 | 44.26649 | 5.56125 | 36970 ft | 442 kts | 205° |
| 2026-05-07 12:20 | 44.21086 | 5.53090 | 36975 ft | 441 kts | 205° |
| 2026-05-07 12:20 | 44.15368 | 5.49965 | 36983 ft | 441 kts | 205° |
| 2026-05-07 12:21 | 44.09658 | 5.46850 | 36992 ft | 441 kts | 205° |
| 2026-05-07 12:21 | 44.03949 | 5.43749 | 36986 ft | 440 kts | 205° |
| 2026-05-07 12:22 | 43.98243 | 5.40665 | 36984 ft | 440 kts | 205° |
| 2026-05-07 12:22 | 43.92545 | 5.37587 | 36986 ft | 439 kts | 205° |
| 2026-05-07 12:23 | 43.86893 | 5.34527 | 36982 ft | 439 kts | 205° |
| 2026-05-07 12:23 | 43.81204 | 5.31456 | 37001 ft | 438 kts | 205° |
| 2026-05-07 12:24 | 43.75703 | 5.28493 | 36996 ft | 438 kts | 205° |
| 2026-05-07 12:24 | 43.70052 | 5.25457 | 36980 ft | 437 kts | 205° |
| 2026-05-07 12:25 | 43.64385 | 5.22417 | 36986 ft | 437 kts | 205° |
| 2026-05-07 12:25 | 43.58704 | 5.19379 | 37012 ft | 437 kts | 205° |
| 2026-05-07 12:26 | 43.53031 | 5.16360 | 37020 ft | 437 kts | 205° |
| 2026-05-07 12:26 | 43.47390 | 5.13353 | 37012 ft | 436 kts | 205° |
| 2026-05-07 12:27 | 43.41728 | 5.10339 | 37015 ft | 436 kts | 205° |
| 2026-05-07 12:27 | 43.36373 | 5.06567 | 37015 ft | 430 kts | 217° |
| 2026-05-07 12:28 | 43.31461 | 5.01911 | 37000 ft | 430 kts | 217° |
| 2026-05-07 12:28 | 43.26545 | 4.97285 | 37011 ft | 429 kts | 217° |
| 2026-05-07 12:29 | 43.21597 | 4.92647 | 37026 ft | 429 kts | 217° |
| 2026-05-07 12:29 | 43.16676 | 4.88038 | 37023 ft | 428 kts | 217° |
| 2026-05-07 12:30 | 43.11773 | 4.83445 | 37009 ft | 428 kts | 217° |
| 2026-05-07 12:30 | 43.06850 | 4.78849 | 37027 ft | 428 kts | 217° |
| 2026-05-07 12:31 | 43.01726 | 4.74732 | 37032 ft | 429 kts | 212° |
| 2026-05-07 12:31 | 42.96519 | 4.70784 | 37033 ft | 429 kts | 212° |
| 2026-05-07 12:32 | 42.91300 | 4.66844 | 37022 ft | 428 kts | 212° |
| 2026-05-07 12:32 | 42.86074 | 4.62892 | 37030 ft | 428 kts | 212° |
| 2026-05-07 12:33 | 42.78297 | 4.57025 | 37048 ft | 427 kts | 212° |
| 2026-05-07 12:33 | 42.73096 | 4.53111 | 37041 ft | 427 kts | 212° |
| 2026-05-07 12:34 | 42.67887 | 4.49199 | 37040 ft | 427 kts | 211° |
| 2026-05-07 12:34 | 42.62703 | 4.45319 | 37037 ft | 427 kts | 211° |
| 2026-05-07 12:35 | 42.57497 | 4.41435 | 37032 ft | 427 kts | 211° |
| 2026-05-07 12:35 | 42.52277 | 4.37535 | 37015 ft | 427 kts | 211° |
| 2026-05-07 12:36 | 42.47088 | 4.33670 | 37032 ft | 426 kts | 211° |
| 2026-05-07 12:36 | 42.41855 | 4.29782 | 37039 ft | 426 kts | 211° |
| 2026-05-07 12:37 | 42.36674 | 4.25933 | 37043 ft | 425 kts | 211° |
| 2026-05-07 12:37 | 42.31488 | 4.22089 | 37026 ft | 425 kts | 211° |
| 2026-05-07 12:38 | 42.26327 | 4.18279 | 37049 ft | 425 kts | 211° |
| 2026-05-07 12:38 | 42.21150 | 4.14461 | 37046 ft | 424 kts | 211° |
| 2026-05-07 12:39 | 42.16004 | 4.10663 | 37041 ft | 423 kts | 211° |
| 2026-05-07 12:39 | 42.10832 | 4.06857 | 37024 ft | 423 kts | 211° |
| 2026-05-07 12:40 | 42.05704 | 4.03093 | 37032 ft | 422 kts | 211° |
| 2026-05-07 12:40 | 42.00514 | 3.99297 | 37033 ft | 422 kts | 211° |
| 2026-05-07 12:41 | 41.95386 | 3.95560 | 37035 ft | 422 kts | 211° |
| 2026-05-07 12:41 | 41.89854 | 3.92755 | 37020 ft | 429 kts | 194° |
| 2026-05-07 12:42 | 41.83965 | 3.91393 | 37028 ft | 429 kts | 194° |
| 2026-05-07 12:42 | 41.78081 | 3.90055 | 37032 ft | 429 kts | 194° |
| 2026-05-07 12:43 | 41.72204 | 3.88716 | 37034 ft | 428 kts | 194° |
| 2026-05-07 12:43 | 41.66372 | 3.87374 | 37027 ft | 428 kts | 194° |
| 2026-05-07 12:44 | 41.60468 | 3.86023 | 37030 ft | 427 kts | 194° |
| 2026-05-07 12:44 | 41.54625 | 3.84677 | 37026 ft | 427 kts | 194° |
| 2026-05-07 12:45 | 41.48800 | 3.83326 | 37011 ft | 427 kts | 194° |
| 2026-05-07 12:45 | 41.42909 | 3.81981 | 37031 ft | 426 kts | 194° |
| 2026-05-07 12:46 | 41.37117 | 3.80664 | 37045 ft | 425 kts | 194° |
| 2026-05-07 12:46 | 41.31286 | 3.79331 | 37041 ft | 424 kts | 194° |
| 2026-05-07 12:47 | 41.25473 | 3.78006 | 37028 ft | 424 kts | 194° |
| 2026-05-07 12:47 | 41.19660 | 3.76697 | 37021 ft | 423 kts | 194° |
| 2026-05-07 12:48 | 41.13944 | 3.75017 | 37018 ft | 417 kts | 204° |
| 2026-05-07 12:48 | 41.08554 | 3.72218 | 37020 ft | 416 kts | 205° |
| 2026-05-07 12:49 | 41.03163 | 3.69433 | 37018 ft | 416 kts | 204° |
| 2026-05-07 12:49 | 40.97771 | 3.66668 | 37020 ft | 415 kts | 204° |
| 2026-05-07 12:50 | 40.92381 | 3.63904 | 37018 ft | 415 kts | 204° |
| 2026-05-07 12:50 | 40.87008 | 3.61142 | 37016 ft | 415 kts | 205° |
| 2026-05-07 12:51 | 40.81657 | 3.58398 | 37005 ft | 414 kts | 204° |
| 2026-05-07 12:51 | 40.76252 | 3.55647 | 37010 ft | 414 kts | 204° |
| 2026-05-07 12:52 | 40.70870 | 3.52903 | 37015 ft | 414 kts | 204° |
| 2026-05-07 12:52 | 40.65539 | 3.50182 | 37005 ft | 414 kts | 204° |
| 2026-05-07 12:53 | 40.60187 | 3.47460 | 36650 ft | 408 kts | 204° |
| 2026-05-07 12:53 | 40.57565 | 3.46136 | 36183 ft | 401 kts | 204° |
| 2026-05-07 12:53 | 40.54977 | 3.44831 | 35718 ft | 394 kts | 205° |
| 2026-05-07 12:54 | 40.52430 | 3.43546 | 35277 ft | 388 kts | 205° |
| 2026-05-07 12:54 | 40.49938 | 3.42286 | 34827 ft | 381 kts | 205° |
| 2026-05-07 12:54 | 40.47484 | 3.41041 | 34400 ft | 375 kts | 205° |
| 2026-05-07 12:54 | 40.45009 | 3.39984 | 33968 ft | 373 kts | 198° |
| 2026-05-07 12:55 | 40.42451 | 3.39461 | 33416 ft | 374 kts | 190° |
| 2026-05-07 12:55 | 40.39845 | 3.39468 | 32817 ft | 376 kts | 184° |
| 2026-05-07 12:55 | 40.37231 | 3.39626 | 32195 ft | 375 kts | 184° |
| 2026-05-07 12:55 | 40.34641 | 3.39777 | 31608 ft | 373 kts | 184° |
| 2026-05-07 12:56 | 40.32056 | 3.39925 | 31021 ft | 371 kts | 184° |
| 2026-05-07 12:56 | 40.29482 | 3.40072 | 30449 ft | 370 kts | 184° |
| 2026-05-07 12:56 | 40.26913 | 3.40222 | 29861 ft | 368 kts | 184° |
| 2026-05-07 12:56 | 40.24360 | 3.40370 | 29222 ft | 367 kts | 184° |
| 2026-05-07 12:57 | 40.21813 | 3.40513 | 28603 ft | 365 kts | 184° |
| 2026-05-07 12:57 | 40.19284 | 3.40653 | 27990 ft | 363 kts | 184° |
| 2026-05-07 12:57 | 40.16767 | 3.40788 | 27393 ft | 361 kts | 183° |
| 2026-05-07 12:57 | 40.14260 | 3.41072 | 26812 ft | 361 kts | 181° |
| 2026-05-07 12:58 | 40.11753 | 3.41287 | 26246 ft | 358 kts | 183° |
| 2026-05-07 12:58 | 40.09275 | 3.41397 | 25700 ft | 356 kts | 184° |
| 2026-05-07 12:58 | 40.06810 | 3.41472 | 25153 ft | 355 kts | 184° |
| 2026-05-07 12:58 | 40.04324 | 3.41550 | 24617 ft | 354 kts | 184° |
| 2026-05-07 12:59 | 40.01865 | 3.41642 | 24097 ft | 353 kts | 183° |
| 2026-05-07 12:59 | 39.99416 | 3.41750 | 23593 ft | 353 kts | 183° |
| 2026-05-07 12:59 | 39.96963 | 3.41878 | 23017 ft | 351 kts | 181° |
| 2026-05-07 12:59 | 39.94538 | 3.42020 | 22522 ft | 349 kts | 181° |
| 2026-05-07 13:00 | 39.92117 | 3.42172 | 22042 ft | 346 kts | 180° |
| 2026-05-07 13:00 | 39.89728 | 3.42320 | 21557 ft | 343 kts | 180° |
| 2026-05-07 13:00 | 39.88155 | 3.42415 | 21244 ft | 342 kts | 180° |
| 2026-05-07 13:00 | 39.85776 | 3.42553 | 20780 ft | 340 kts | 180° |
| 2026-05-07 13:01 | 39.83421 | 3.42683 | 20333 ft | 338 kts | 180° |
| 2026-05-07 13:01 | 39.81077 | 3.42813 | 19880 ft | 336 kts | 180° |
| 2026-05-07 13:01 | 39.78752 | 3.42945 | 19447 ft | 334 kts | 180° |
| 2026-05-07 13:01 | 39.76443 | 3.43074 | 19018 ft | 332 kts | 179° |
| 2026-05-07 13:02 | 39.73405 | 3.43000 | 18532 ft | 325 kts | 191° |
| 2026-05-07 13:02 | 39.71938 | 3.42503 | 18289 ft | 323 kts | 200° |
| 2026-05-07 13:02 | 39.69944 | 3.41149 | 17681 ft | 326 kts | 216° |
| 2026-05-07 13:02 | 39.68300 | 3.39116 | 17080 ft | 330 kts | 231° |
| 2026-05-07 13:03 | 39.67113 | 3.36551 | 16474 ft | 334 kts | 242° |
| 2026-05-07 13:03 | 39.66095 | 3.33883 | 15907 ft | 325 kts | 241° |
| 2026-05-07 13:03 | 39.65144 | 3.31406 | 15366 ft | 318 kts | 241° |
| 2026-05-07 13:03 | 39.64161 | 3.28851 | 14793 ft | 311 kts | 241° |
| 2026-05-07 13:04 | 39.63201 | 3.26366 | 14245 ft | 305 kts | 240° |
| 2026-05-07 13:04 | 39.62259 | 3.23935 | 13694 ft | 300 kts | 240° |
| 2026-05-07 13:04 | 39.61362 | 3.21618 | 13104 ft | 296 kts | 240° |
| 2026-05-07 13:04 | 39.60456 | 3.19274 | 12785 ft | 281 kts | 240° |
| 2026-05-07 13:05 | 39.59618 | 3.17100 | 12352 ft | 273 kts | 241° |
| 2026-05-07 13:05 | 39.58761 | 3.14884 | 11783 ft | 270 kts | 240° |
| 2026-05-07 13:05 | 39.57929 | 3.12745 | 11217 ft | 268 kts | 239° |
| 2026-05-07 13:05 | 39.57082 | 3.10565 | 10650 ft | 267 kts | 240° |
| 2026-05-07 13:06 | 39.56260 | 3.08452 | 10103 ft | 267 kts | 241° |
| 2026-05-07 13:06 | 39.55426 | 3.06305 | 9523 ft | 266 kts | 240° |
| 2026-05-07 13:06 | 39.54595 | 3.04173 | 8942 ft | 264 kts | 242° |
| 2026-05-07 13:06 | 39.53799 | 3.02127 | 8393 ft | 252 kts | 240° |
| 2026-05-07 13:07 | 39.53101 | 3.00329 | 7865 ft | 244 kts | 242° |
| 2026-05-07 13:07 | 39.52316 | 2.98300 | 7267 ft | 237 kts | 242° |
| 2026-05-07 13:07 | 39.51583 | 2.96412 | 6706 ft | 234 kts | 241° |
| 2026-05-07 13:07 | 39.50855 | 2.94550 | 6193 ft | 228 kts | 242° |
| 2026-05-07 13:08 | 39.50143 | 2.92734 | 5677 ft | 225 kts | 242° |
| 2026-05-07 13:08 | 39.49443 | 2.90948 | 5174 ft | 220 kts | 241° |
| 2026-05-07 13:08 | 39.48756 | 2.89194 | 4662 ft | 218 kts | 241° |
| 2026-05-07 13:08 | 39.48072 | 2.87449 | 4172 ft | 217 kts | 240° |
| 2026-05-07 13:09 | 39.47410 | 2.85760 | 3998 ft | 200 kts | 240° |
| 2026-05-07 13:09 | 39.46791 | 2.84177 | 4016 ft | 198 kts | 240° |
| 2026-05-07 13:09 | 39.46168 | 2.82590 | 4013 ft | 197 kts | 240° |
| 2026-05-07 13:09 | 39.45566 | 2.81055 | 3996 ft | 183 kts | 240° |
| 2026-05-07 13:10 | 39.45020 | 2.79658 | 4011 ft | 168 kts | 240° |
| 2026-05-07 13:10 | 39.44501 | 2.78334 | 4008 ft | 165 kts | 240° |
| 2026-05-07 13:10 | 39.44090 | 2.76944 | 4011 ft | 166 kts | 253° |
| 2026-05-07 13:10 | 39.43879 | 2.75493 | 4005 ft | 162 kts | 264° |
| 2026-05-07 13:11 | 39.43863 | 2.74028 | 4009 ft | 164 kts | 275° |
| 2026-05-07 13:11 | 39.44037 | 2.72571 | 4014 ft | 163 kts | 283° |
| 2026-05-07 13:11 | 39.44267 | 2.71132 | 4008 ft | 163 kts | 282° |
| 2026-05-07 13:11 | 39.44491 | 2.69711 | 3879 ft | 160 kts | 282° |
| 2026-05-07 13:12 | 39.44810 | 2.68332 | 3503 ft | 161 kts | 296° |
| 2026-05-07 13:12 | 39.45356 | 2.67126 | 3201 ft | 157 kts | 311° |
| 2026-05-07 13:12 | 39.46106 | 2.66107 | 2886 ft | 151 kts | 326° |
| 2026-05-07 13:12 | 39.46970 | 2.65378 | 2566 ft | 146 kts | 340° |
| 2026-05-07 13:13 | 39.47897 | 2.64928 | 2231 ft | 142 kts | 352° |
| 2026-05-07 13:13 | 39.48878 | 2.64744 | 1897 ft | 138 kts | 5° |
| 2026-05-07 13:13 | 39.49819 | 2.64827 | 1584 ft | 135 kts | 15° |
| 2026-05-07 13:13 | 39.50729 | 2.65157 | 1318 ft | 144 kts | 25° |
| 2026-05-07 13:14 | 39.51603 | 2.65748 | 1073 ft | 140 kts | 36° |
| 2026-05-07 13:14 | 39.52355 | 2.66514 | 838 ft | 133 kts | 45° |
| 2026-05-07 13:14 | 39.52984 | 2.67315 | 669 ft | 122 kts | 54° |
| 2026-05-07 13:14 | 39.53426 | 2.68234 | 545 ft | 120 kts | 64° |
| 2026-05-07 13:15 | 39.53850 | 2.69222 | 314 ft | 130 kts | 58° |
| 2026-05-07 13:15 | 39.54311 | 2.70191 | 208 ft | 123 kts | 60° |
| 2026-05-07 13:15 | 39.54741 | 2.71122 | 50 ft | 116 kts | 60° |
| 2026-05-07 13:15 | 39.55114 | 2.71925 | 38 ft | 85 kts | 58° |
| 2026-05-07 13:16 | 39.55287 | 2.72284 | 38 ft | 15 kts | 60° |
| 2026-05-07 13:16 | 39.55252 | 2.72355 | 38 ft | 11 kts | 147° |
| 2026-05-07 13:16 | 39.55187 | 2.72407 | 38 ft | 11 kts | 148° |
| 2026-05-07 13:16 | 39.55182 | 2.72495 | 38 ft | 11 kts | 62° |
| 2026-05-07 13:17 | 39.55224 | 2.72589 | 38 ft | 13 kts | 59° |
| 2026-05-07 13:17 | 39.55275 | 2.72699 | 38 ft | 15 kts | 58° |
| 2026-05-07 13:17 | 39.55333 | 2.72823 | 38 ft | 18 kts | 59° |
| 2026-05-07 13:17 | 39.55374 | 2.72954 | 38 ft | 13 kts | 111° |
| 2026-05-07 13:18 | 39.55292 | 2.73042 | 38 ft | 17 kts | 131° |
| 2026-05-07 13:18 | 39.55323 | 2.73186 | 37 ft | 19 kts | 56° |
| 2026-05-07 13:18 | 39.55394 | 2.73339 | 37 ft | 21 kts | 58° |
| 2026-05-07 13:18 | 39.55406 | 2.73452 | 37 ft | 13 kts | 135° |
| 2026-05-07 13:19 | 39.55313 | 2.73527 | 38 ft | 18 kts | 148° |
| 2026-05-07 13:19 | 39.55198 | 2.73619 | 38 ft | 12 kts | 148° |
| 2026-05-07 13:19 | 39.55182 | 2.73703 | 38 ft | 5 kts | 86° |
| 2026-05-07 13:19 | 39.55171 | 2.73748 | 38 ft | 0 kts | 142° |
| 2026-05-07 13:20 | 39.55155 | 2.73760 | 38 ft | 5 kts | 151° |
| 2026-05-07 13:20 | 39.55109 | 2.73794 | 38 ft | 10 kts | 148° |
| 2026-05-07 13:20 | 39.55035 | 2.73852 | 37 ft | 15 kts | 148° |
| 2026-05-07 13:20 | 39.55009 | 2.73873 | 38 ft | 0 kts | 149° |
| 2026-05-07 13:21 | 39.55003 | 2.73878 | 38 ft | 3 kts | 149° |
| 2026-05-07 13:21 | 39.54971 | 2.73903 | 38 ft | 8 kts | 149° |
| 2026-05-07 13:21 | 39.54908 | 2.73952 | 38 ft | 13 kts | 149° |
| 2026-05-07 13:22 | 39.54821 | 2.73990 | 38 ft | 13 kts | 202° |
| 2026-05-07 13:22 | 39.54760 | 2.73887 | 38 ft | 16 kts | 237° |
| 2026-05-07 13:22 | 39.54700 | 2.73759 | 38 ft | 17 kts | 239° |
| 2026-05-07 13:22 | 39.54646 | 2.73639 | 38 ft | 13 kts | 240° |
| 2026-05-07 13:23 | 39.54641 | 2.73542 | 36 ft | 12 kts | 322° |
| 2026-05-07 13:23 | 39.54713 | 2.73485 | 38 ft | 6 kts | 328° |
| 2026-05-07 13:23 | 39.54740 | 2.73468 | 36 ft | 0 kts | 345° |
| 2026-05-07 13:24 | 39.54742 | 2.73468 | 36 ft | 1 kts | 346° |
| 2026-05-07 13:24 | 39.54764 | 2.73465 | 38 ft | 6 kts | 356° |
| 2026-05-07 13:25 | 39.54800 | 2.73498 | 38 ft | 4 kts | 60° |
| 2026-05-07 13:25 | 39.54821 | 2.73543 | 37 ft | 5 kts | 58° |
| 2026-05-07 13:25 | 39.54829 | 2.73558 | 38 ft | 0 kts | 58° |
| 2026-05-07 13:25 | 39.54829 | 2.73560 | 38 ft | 1 kts | 58° |
| 2026-05-07 13:26 | 39.54835 | 2.73571 | 38 ft | 0 kts | 58° |